sensor_id;sensor_type;location;lat;lon;timestamp;pressure;altitude;pressure_sealevel;temperature;humidity
50696;BME280;36665;51.786;21.594;2023-03-03T00:02:09;90904.15;;;-3.27;73.03
50696;BME280;36665;51.786;21.594;2023-03-03T00:10:32;90876.27;;;-3.34;73.12
50696;BME280;36665;51.786;21.594;2023-03-03T00:18:56;90836.64;;;-3.46;72.80
50696;BME280;36665;51.786;21.594;2023-03-03T00:27:29;90799.02;;;-3.56;72.92
50696;BME280;36665;51.786;21.594;2023-03-03T00:35:53;90734.05;;;-3.75;72.78
50696;BME280;36665;51.786;21.594;2023-03-03T00:53:05;90654.98;;;-3.97;72.82
50696;BME280;36665;51.786;21.594;2023-03-03T01:01:28;90647.44;;;-3.98;72.85
50696;BME280;36665;51.786;21.594;2023-03-03T01:09:51;90605.85;;;-4.09;72.70
50696;BME280;36665;51.786;21.594;2023-03-03T01:18:15;90583.49;;;-4.16;72.69
50696;BME280;36665;51.786;21.594;2023-03-03T01:26:40;90574.95;;;-4.18;72.81
50696;BME280;36665;51.786;21.594;2023-03-03T01:35:04;90560.75;;;-4.21;72.85
50696;BME280;36665;51.786;21.594;2023-03-03T01:43:29;90549.73;;;-4.25;72.90
50696;BME280;36665;51.786;21.594;2023-03-03T01:51:58;90544.52;;;-4.25;72.82
50696;BME280;36665;51.786;21.594;2023-03-03T02:00:23;90519.19;;;-4.33;72.80
50696;BME280;36665;51.786;21.594;2023-03-03T02:17:12;90495.83;;;-4.39;72.74
50696;BME280;36665;51.786;21.594;2023-03-03T02:34:23;90511.11;;;-4.35;72.79
50696;BME280;36665;51.786;21.594;2023-03-03T02:42:49;90515.84;;;-4.34;72.73
50696;BME280;36665;51.786;21.594;2023-03-03T02:51:14;90517.98;;;-4.34;72.98
50696;BME280;36665;51.786;21.594;2023-03-03T02:59:38;90497.36;;;-4.39;72.96
50696;BME280;36665;51.786;21.594;2023-03-03T03:08:04;90477.98;;;-4.44;72.81
50696;BME280;36665;51.786;21.594;2023-03-03T03:16:28;90482.83;;;-4.42;72.81
50696;BME280;36665;51.786;21.594;2023-03-03T03:24:51;90519.75;;;-4.32;72.85
50696;BME280;36665;51.786;21.594;2023-03-03T03:33:19;90531.34;;;-4.29;72.92
50696;BME280;36665;51.786;21.594;2023-03-03T03:41:43;90506.63;;;-4.36;72.92
50696;BME280;36665;51.786;21.594;2023-03-03T03:50:07;90510.13;;;-4.36;73.00
50696;BME280;36665;51.786;21.594;2023-03-03T03:58:31;90562.05;;;-4.21;72.96
50696;BME280;36665;51.786;21.594;2023-03-03T04:06:57;90596.08;;;-4.11;73.07
50696;BME280;36665;51.786;21.594;2023-03-03T04:15:21;90603.70;;;-4.08;73.14
50696;BME280;36665;51.786;21.594;2023-03-03T04:23:45;90648.33;;;-3.97;73.15
50696;BME280;36665;51.786;21.594;2023-03-03T04:32:08;90716.16;;;-3.77;73.26
50696;BME280;36665;51.786;21.594;2023-03-03T04:40:32;90769.46;;;-3.63;73.18
50696;BME280;36665;51.786;21.594;2023-03-03T04:48:56;90826.46;;;-3.48;73.23
50696;BME280;36665;51.786;21.594;2023-03-03T04:57:20;90899.59;;;-3.26;73.46
50696;BME280;36665;51.786;21.594;2023-03-03T05:05:45;90968.14;;;-3.07;73.49
50696;BME280;36665;51.786;21.594;2023-03-03T05:14:09;90991.58;;;-3.00;73.54
50696;BME280;36665;51.786;21.594;2023-03-03T05:22:33;91018.03;;;-2.94;73.75
50696;BME280;36665;51.786;21.594;2023-03-03T05:30:56;91071.98;;;-2.79;73.69
50696;BME280;36665;51.786;21.594;2023-03-03T05:39:19;91118.66;;;-2.66;73.72
50696;BME280;36665;51.786;21.594;2023-03-03T05:47:42;91123.66;;;-2.65;73.62
50696;BME280;36665;51.786;21.594;2023-03-03T05:56:06;91096.08;;;-2.73;73.65
50696;BME280;36665;51.786;21.594;2023-03-03T06:04:29;91083.85;;;-2.76;73.86
50696;BME280;36665;51.786;21.594;2023-03-03T06:12:52;91125.23;;;-2.64;73.88
50696;BME280;36665;51.786;21.594;2023-03-03T06:21:16;91189.64;;;-2.46;73.80
50696;BME280;36665;51.786;21.594;2023-03-03T06:29:40;91223.63;;;-2.37;73.93
50696;BME280;36665;51.786;21.594;2023-03-03T06:38:03;91208.46;;;-2.43;74.06
50696;BME280;36665;51.786;21.594;2023-03-03T06:46:27;91187.83;;;-2.47;74.04
50696;BME280;36665;51.786;21.594;2023-03-03T06:54:54;91202.39;;;-2.43;73.97
50696;BME280;36665;51.786;21.594;2023-03-03T07:03:22;91231.73;;;-2.35;73.97
50696;BME280;36665;51.786;21.594;2023-03-03T07:11:46;91280.99;;;-2.22;74.04
50696;BME280;36665;51.786;21.594;2023-03-03T07:20:23;91317.04;;;-2.12;74.29
50696;BME280;36665;51.786;21.594;2023-03-03T07:28:55;91345.42;;;-2.04;74.25
50696;BME280;36665;51.786;21.594;2023-03-03T07:45:46;91478.49;;;-1.67;74.31
50696;BME280;36665;51.786;21.594;2023-03-03T07:54:35;91494.80;;;-1.63;74.47
50696;BME280;36665;51.786;21.594;2023-03-03T08:03:03;91486.48;;;-1.65;74.46
50696;BME280;36665;51.786;21.594;2023-03-03T08:11:26;91519.48;;;-1.57;74.50
50696;BME280;36665;51.786;21.594;2023-03-03T08:19:51;91605.58;;;-1.33;74.61
50696;BME280;36665;51.786;21.594;2023-03-03T08:28:33;91679.40;;;-1.12;74.77
50696;BME280;36665;51.786;21.594;2023-03-03T08:36:56;91721.47;;;-1.02;74.74
50696;BME280;36665;51.786;21.594;2023-03-03T08:45:20;91778.59;;;-0.87;74.97
50696;BME280;36665;51.786;21.594;2023-03-03T08:53:43;91825.18;;;-0.74;75.00
50696;BME280;36665;51.786;21.594;2023-03-03T09:02:07;91860.77;;;-0.65;75.10
50696;BME280;36665;51.786;21.594;2023-03-03T09:10:31;91908.76;;;-0.51;75.05
50696;BME280;36665;51.786;21.594;2023-03-03T09:18:54;91956.30;;;-0.39;75.13
50696;BME280;36665;51.786;21.594;2023-03-03T09:27:30;91986.84;;;-0.30;75.16
50696;BME280;36665;51.786;21.594;2023-03-03T09:36:26;92024.05;;;-0.21;75.34
50696;BME280;36665;51.786;21.594;2023-03-03T09:53:59;92113.65;;;0.05;75.37
50696;BME280;36665;51.786;21.594;2023-03-03T10:02:52;92157.45;;;0.16;75.43
50696;BME280;36665;51.786;21.594;2023-03-03T10:11:56;92176.05;;;0.21;75.45
50696;BME280;36665;51.786;21.594;2023-03-03T11:21:30;92510.14;;;1.11;76.01
50696;BME280;36665;51.786;21.594;2023-03-03T11:38:50;92571.11;;;1.26;76.14
50696;BME280;36665;51.786;21.594;2023-03-03T11:47:22;92558.65;;;1.23;76.11
50696;BME280;36665;51.786;21.594;2023-03-03T11:55:54;92564.38;;;1.24;75.92
50696;BME280;36665;51.786;21.594;2023-03-03T12:04:28;92583.21;;;1.30;76.12
50696;BME280;36665;51.786;21.594;2023-03-03T12:21:50;92597.69;;;1.33;75.91
50696;BME280;36665;51.786;21.594;2023-03-03T12:48:00;92553.82;;;1.22;75.82
50696;BME280;36665;51.786;21.594;2023-03-03T12:56:40;92523.02;;;1.14;75.81
50696;BME280;36665;51.786;21.594;2023-03-03T13:05:19;92507.06;;;1.08;75.73
50696;BME280;36665;51.786;21.594;2023-03-03T13:13:56;92469.20;;;0.98;75.76
50696;BME280;36665;51.786;21.594;2023-03-03T13:23:05;92444.42;;;0.92;75.61
50696;BME280;36665;51.786;21.594;2023-03-03T13:31:14;92399.91;;;0.80;75.66
50696;BME280;36665;51.786;21.594;2023-03-03T13:39:44;92354.30;;;0.67;75.55
50696;BME280;36665;51.786;21.594;2023-03-03T14:05:44;92245.45;;;0.37;75.38
50696;BME280;36665;51.786;21.594;2023-03-03T14:22:53;92142.23;;;0.08;75.39
50696;BME280;36665;51.786;21.594;2023-03-03T14:31:37;92096.65;;;-0.04;75.46
50696;BME280;36665;51.786;21.594;2023-03-03T14:40:30;92062.30;;;-0.14;75.31
50696;BME280;36665;51.786;21.594;2023-03-03T14:48:57;92036.27;;;-0.21;75.31
50696;BME280;36665;51.786;21.594;2023-03-03T14:57:38;91985.75;;;-0.34;75.33
50696;BME280;36665;51.786;21.594;2023-03-03T15:15:23;91913.32;;;-0.54;75.47
50696;BME280;36665;51.786;21.594;2023-03-03T15:24:28;91873.27;;;-0.65;75.12
50696;BME280;36665;51.786;21.594;2023-03-03T15:41:43;91790.94;;;-0.88;75.17
50696;BME280;36665;51.786;21.594;2023-03-03T15:50:25;91755.91;;;-0.99;75.06
50696;BME280;36665;51.786;21.594;2023-03-03T16:07:34;91693.21;;;-1.14;75.21
50696;BME280;36665;51.786;21.594;2023-03-03T16:42:34;91668.30;;;-1.21;75.07
50696;BME280;36665;51.786;21.594;2023-03-03T17:08:45;91650.15;;;-1.26;75.01
50696;BME280;36665;51.786;21.594;2023-03-03T17:17:01;91649.99;;;-1.27;75.10
50696;BME280;36665;51.786;21.594;2023-03-03T18:26:54;91570.92;;;-1.48;75.18
50696;BME280;36665;51.786;21.594;2023-03-03T18:44:01;91555.40;;;-1.53;75.10
50696;BME280;36665;51.786;21.594;2023-03-03T18:52:28;91535.56;;;-1.58;75.09
50696;BME280;36665;51.786;21.594;2023-03-03T19:00:57;91540.78;;;-1.55;75.12
50696;BME280;36665;51.786;21.594;2023-03-03T19:18:13;91551.37;;;-1.53;75.07
50696;BME280;36665;51.786;21.594;2023-03-03T19:44:17;91568.97;;;-1.49;75.21
50696;BME280;36665;51.786;21.594;2023-03-03T20:01:53;91577.47;;;-1.46;75.03
50696;BME280;36665;51.786;21.594;2023-03-03T20:28:04;91539.88;;;-1.57;75.28
50696;BME280;36665;51.786;21.594;2023-03-03T21:02:35;91570.89;;;-1.48;75.25
50696;BME280;36665;51.786;21.594;2023-03-03T21:11:00;91600.77;;;-1.40;75.35
50696;BME280;36665;51.786;21.594;2023-03-03T21:19:33;91610.98;;;-1.37;75.25
50696;BME280;36665;51.786;21.594;2023-03-03T21:28:15;91601.09;;;-1.40;75.43
50696;BME280;36665;51.786;21.594;2023-03-03T21:45:09;91620.30;;;-1.35;75.24
50696;BME280;36665;51.786;21.594;2023-03-03T21:53:32;91623.45;;;-1.34;75.41
50696;BME280;36665;51.786;21.594;2023-03-03T22:01:55;91619.79;;;-1.35;75.35
50696;BME280;36665;51.786;21.594;2023-03-03T22:10:19;91614.97;;;-1.36;75.28
50696;BME280;36665;51.786;21.594;2023-03-03T22:18:42;91627.72;;;-1.32;75.42
50696;BME280;36665;51.786;21.594;2023-03-03T22:35:53;91642.58;;;-1.29;75.36
50696;BME280;36665;51.786;21.594;2023-03-03T22:44:17;91642.73;;;-1.29;75.43
50696;BME280;36665;51.786;21.594;2023-03-03T22:52:42;91645.65;;;-1.27;75.43
50696;BME280;36665;51.786;21.594;2023-03-03T23:01:05;91635.84;;;-1.31;75.24
50696;BME280;36665;51.786;21.594;2023-03-03T23:09:28;91650.17;;;-1.28;75.17
50696;BME280;36665;51.786;21.594;2023-03-03T23:17:52;91672.89;;;-1.21;75.28
50696;BME280;36665;51.786;21.594;2023-03-03T23:26:16;91667.62;;;-1.21;75.27
50696;BME280;36665;51.786;21.594;2023-03-03T23:34:39;91681.86;;;-1.17;75.41
50696;BME280;36665;51.786;21.594;2023-03-03T23:43:03;91706.64;;;-1.11;75.47
50696;BME280;36665;51.786;21.594;2023-03-03T23:51:26;91709.23;;;-1.10;75.43
50696;BME280;36665;51.786;21.594;2023-03-03T23:59:49;91719.15;;;-1.07;75.41
